Time;durP1;ratioP1;P1;durP2;ratioP2;P2;SDS_P1;SDS_P2;PMS_P1;PMS_P2;Temp;Humidity;BMP_temperature;BMP_pressure;BME280_temperature;BME280_humidity;BME280_pressure;Samples;Min_cycle;Max_cycle;Signal;HPM_P1;HPM_P2
2022/04/19 00:01:10;;;;;;;11.20;4.80;;;23.90;42.30;;;;;;220719;1267;23019;-62
2022/04/19 00:06:14;;;;;;;10.70;4.60;;;24.00;42.30;;;;;;220622;1267;22673;-64
2022/04/19 00:11:18;;;;;;;11.20;4.70;;;24.00;42.20;;;;;;220623;1267;24249;-63
2022/04/19 00:16:22;;;;;;;16.60;5.70;;;23.80;42.60;;;;;;220502;1267;22555;-62
2022/04/19 00:21:25;;;;;;;12.70;5.50;;;23.70;43.20;;;;;;220895;1267;22543;-63
2022/04/19 00:26:29;;;;;;;12.80;5.50;;;23.60;44.70;;;;;;220707;1267;23939;-61
2022/04/19 00:31:33;;;;;;;12.00;5.00;;;23.60;46.70;;;;;;220920;1267;22686;-64
2022/04/19 00:36:38;;;;;;;14.80;6.00;;;23.50;46.90;;;;;;220545;1268;22816;-62
2022/04/19 00:41:42;;;;;;;12.40;5.20;;;23.40;47.00;;;;;;220784;1267;23168;-63
2022/04/19 00:46:53;;;;;;;14.20;5.40;;;23.30;47.00;;;;;;220643;1267;23212;-63
2022/04/19 00:51:57;;;;;;;10.80;5.30;;;23.30;46.90;;;;;;220700;1267;24418;-63
2022/04/19 00:57:03;;;;;;;11.60;4.70;;;23.30;46.90;;;;;;220480;1268;24414;-63
2022/04/19 01:02:08;;;;;;;13.00;5.30;;;23.30;47.00;;;;;;220278;1268;22711;-64
2022/04/19 01:07:12;;;;;;;12.50;5.60;;;23.30;46.90;;;;;;220438;1267;24119;-64
2022/04/19 01:17:40;;;;;;;13.10;5.70;;;23.20;47.40;;;;;;220466;1268;25400;-63
2022/04/19 01:22:49;;;;;;;12.00;5.50;;;23.10;47.50;;;;;;220235;1270;24196;-66
2022/04/19 01:27:53;;;;;;;13.30;5.10;;;23.10;47.00;;;;;;220514;1267;22532;-63
2022/04/19 01:32:57;;;;;;;10.60;4.40;;;23.10;46.90;;;;;;220641;1267;24220;-63
2022/04/19 01:38:02;;;;;;;13.50;5.00;;;23.00;46.70;;;;;;220715;1267;24252;-63
2022/04/19 01:43:10;;;;;;;9.80;4.50;;;23.00;46.90;;;;;;220415;1268;24431;-65
2022/04/19 01:48:27;;;;;;;11.80;5.40;;;23.00;46.50;;;;;;220627;1270;24310;-63
2022/04/19 01:53:31;;;;;;;10.60;4.30;;;22.90;46.30;;;;;;220620;1267;24273;-64
2022/04/19 01:58:35;;;;;;;8.10;4.00;;;22.90;46.30;;;;;;220499;1268;25464;-63
2022/04/19 02:03:39;;;;;;;11.60;4.50;;;22.90;46.20;;;;;;220996;1268;25358;-62
2022/04/19 02:08:44;;;;;;;8.60;4.10;;;22.90;45.70;;;;;;220583;1268;26635;-64
2022/04/19 02:13:52;;;;;;;9.00;4.10;;;22.70;45.80;;;;;;220489;1268;22543;-62
2022/04/19 02:19:00;;;;;;;7.20;3.40;;;22.80;46.10;;;;;;220794;1267;22554;-64
2022/04/19 02:24:04;;;;;;;8.10;4.10;;;22.80;46.00;;;;;;220939;1268;23910;-63
2022/04/19 02:29:08;;;;;;;10.10;4.30;;;22.70;46.30;;;;;;221069;1268;24306;-64
2022/04/19 02:34:18;;;;;;;8.70;4.50;;;22.70;45.90;;;;;;220525;1265;22598;-67
2022/04/19 02:39:22;;;;;;;9.40;3.90;;;22.60;45.90;;;;;;220598;1267;22512;-63
2022/04/19 02:44:27;;;;;;;7.70;3.80;;;22.60;45.90;;;;;;220555;1268;26404;-63
2022/04/19 02:49:38;;;;;;;8.40;3.90;;;22.60;46.30;;;;;;220555;1268;22542;-64
2022/04/19 02:54:42;;;;;;;8.50;4.00;;;22.60;45.90;;;;;;220617;1268;22611;-63
2022/04/19 02:59:47;;;;;;;9.90;4.00;;;22.50;46.00;;;;;;220894;1268;23371;-62
2022/04/19 03:04:51;;;;;;;8.40;3.90;;;22.50;46.10;;;;;;221073;1270;24349;-62
2022/04/19 03:09:56;;;;;;;8.70;3.60;;;22.50;45.80;;;;;;220386;1268;24418;-64
2022/04/19 03:15:08;;;;;;;8.80;3.50;;;22.50;45.80;;;;;;220347;1267;24295;-63
2022/04/19 03:20:16;;;;;;;9.00;3.80;;;22.40;46.10;;;;;;220673;1267;24419;-65
2022/04/19 03:30:44;;;;;;;8.30;4.00;;;22.40;46.00;;;;;;220522;1268;22669;-64
2022/04/19 03:35:48;;;;;;;7.80;3.70;;;22.40;45.70;;;;;;220236;1267;24067;-63
2022/04/19 03:40:55;;;;;;;8.20;3.80;;;22.40;46.10;;;;;;220256;1270;22580;-63
2022/04/19 03:45:59;;;;;;;7.70;4.10;;;22.40;45.70;;;;;;220416;1268;23435;-62
2022/04/19 03:51:03;;;;;;;6.30;3.40;;;22.30;45.50;;;;;;220441;1269;24273;-62
2022/04/19 03:56:07;;;;;;;9.40;3.80;;;22.30;45.60;;;;;;220355;1269;22564;-64
2022/04/19 04:01:12;;;;;;;7.00;3.50;;;22.30;45.70;;;;;;220515;1267;25262;-64
2022/04/19 04:06:19;;;;;;;6.30;3.20;;;22.20;45.70;;;;;;220898;1265;26472;-63
2022/04/19 04:11:23;;;;;;;8.00;3.20;;;22.20;45.20;;;;;;221096;1270;22535;-63
2022/04/19 04:16:35;;;;;;;6.60;3.10;;;22.20;45.70;;;;;;220744;1270;22625;-63
2022/04/19 04:21:39;;;;;;;6.70;3.20;;;22.20;45.70;;;;;;220020;1270;484660;-65
2022/04/19 04:26:43;;;;;;;6.90;3.10;;;22.20;45.90;;;;;;220729;1270;23444;-63
2022/04/19 04:31:48;;;;;;;7.80;3.80;;;22.20;45.80;;;;;;220541;1268;24272;-63
2022/04/19 04:36:59;;;;;;;7.10;3.20;;;22.20;45.80;;;;;;220462;1268;22554;-62
2022/04/19 04:42:11;;;;;;;6.40;3.00;;;22.60;46.10;;;;;;220429;1268;22793;-63
2022/04/19 04:52:38;;;;;;;6.00;3.00;;;23.30;44.10;;;;;;220441;1268;24240;-64
2022/04/19 04:57:43;;;;;;;7.00;2.90;;;23.40;43.60;;;;;;221065;1268;24250;-62
2022/04/19 05:02:48;;;;;;;7.40;3.10;;;23.50;43.50;;;;;;220472;1268;22754;-64
2022/04/19 05:07:52;;;;;;;5.50;3.10;;;23.60;43.00;;;;;;220374;1268;24307;-64
2022/04/19 05:12:56;;;;;;;5.50;2.60;;;23.70;42.80;;;;;;220756;1268;24370;-66
2022/04/19 05:18:01;;;;;;;6.10;3.10;;;23.70;42.80;;;;;;220918;1267;22551;-64
2022/04/19 05:23:05;;;;;;;4.70;2.70;;;23.80;42.60;;;;;;220647;1268;24234;-64
2022/04/19 05:28:09;;;;;;;5.50;2.50;;;23.80;42.50;;;;;;220558;1268;23167;-65
2022/04/19 05:33:13;;;;;;;5.90;2.80;;;23.80;42.50;;;;;;220298;1268;22556;-63
2022/04/19 05:38:17;;;;;;;6.70;2.50;;;23.70;42.50;;;;;;220709;1269;24220;-64
2022/04/19 05:43:21;;;;;;;5.90;2.60;;;23.70;42.60;;;;;;220788;1268;22551;-64
2022/04/19 05:48:26;;;;;;;5.10;2.60;;;23.60;42.90;;;;;;220283;1268;24368;-64
2022/04/19 05:53:29;;;;;;;6.30;3.10;;;23.50;44.50;;;;;;220909;1268;24398;-66
2022/04/19 05:58:34;;;;;;;8.80;3.30;;;23.30;44.10;;;;;;220792;1268;25658;-64
2022/04/19 06:09:01;;;;;;;6.10;2.40;;;23.20;44.60;;;;;;220377;1269;22614;-64
2022/04/19 06:14:06;;;;;;;7.80;2.90;;;23.10;45.40;;;;;;220296;1268;22541;-65
2022/04/19 06:19:10;;;;;;;9.60;2.80;;;23.00;45.80;;;;;;220839;1267;24411;-64
2022/04/19 06:24:14;;;;;;;5.60;2.80;;;23.00;45.80;;;;;;220601;1268;22551;-63
2022/04/19 06:29:18;;;;;;;7.20;2.50;;;23.00;46.30;;;;;;220535;1267;23935;-62
2022/04/19 06:34:29;;;;;;;6.80;2.20;;;22.90;46.60;;;;;;219944;1268;22736;-64
2022/04/19 06:39:44;;;;;;;9.60;2.80;;;23.00;46.80;;;;;;220506;1268;25233;-65
2022/04/19 06:44:48;;;;;;;7.60;2.60;;;22.90;46.80;;;;;;220647;1268;25398;-67
2022/04/19 06:49:59;;;;;;;5.90;2.30;;;22.90;47.30;;;;;;220511;1268;24079;-69
2022/04/19 06:55:04;;;;;;;10.60;2.80;;;22.80;47.30;;;;;;220766;1267;22605;-69
2022/04/19 07:00:11;;;;;;;10.40;2.60;;;22.80;46.50;;;;;;220741;1267;25022;-73
2022/04/19 07:05:15;;;;;;;18.10;2.80;;;22.80;46.50;;;;;;220430;1265;22547;-62
2022/04/19 07:10:20;;;;;;;7.40;2.30;;;22.90;45.90;;;;;;221175;1267;22587;-63
2022/04/19 07:15:26;;;;;;;6.40;2.40;;;22.80;45.60;;;;;;220288;1267;25357;-63
2022/04/19 07:31:25;;;;;;;6.20;2.70;;;22.80;45.20;;;;;;220371;1267;24290;-64
2022/04/19 07:36:37;;;;;;;9.20;2.30;;;22.70;45.10;;;;;;220512;1267;22591;-62
2022/04/19 07:41:48;;;;;;;6.00;2.90;;;22.70;45.10;;;;;;220714;1267;25418;-61
2022/04/19 07:46:52;;;;;;;7.90;2.80;;;22.60;44.70;;;;;;220578;1267;22844;-62
2022/04/19 07:51:58;;;;;;;6.00;2.10;;;22.60;44.80;;;;;;219991;1267;24211;-63
2022/04/19 07:57:03;;;;;;;5.30;2.40;;;22.60;44.80;;;;;;220225;1267;22710;-61
2022/04/19 08:02:08;;;;;;;7.20;2.60;;;22.60;44.50;;;;;;220224;1268;22551;-62
2022/04/19 08:07:15;;;;;;;4.40;1.90;;;22.60;45.10;;;;;;220456;1267;24765;-63
2022/04/19 08:12:25;;;;;;;7.30;2.10;;;22.50;44.50;;;;;;220523;1267;24240;-63
2022/04/19 08:17:29;;;;;;;6.30;2.80;;;22.50;44.60;;;;;;220550;1267;24798;-63
2022/04/19 08:22:33;;;;;;;4.50;2.20;;;22.50;44.40;;;;;;220495;1267;22951;-62
2022/04/19 08:27:42;;;;;;;9.40;2.50;;;22.50;44.30;;;;;;220518;1268;25005;-62
2022/04/19 08:32:53;;;;;;;5.50;2.30;;;22.50;44.30;;;;;;220472;1268;25351;-61
2022/04/19 08:37:58;;;;;;;3.70;2.00;;;22.50;44.20;;;;;;220405;1267;22573;-63
2022/04/19 08:43:05;;;;;;;4.00;2.10;;;22.50;44.30;;;;;;220498;1267;22993;-63
2022/04/19 08:48:10;;;;;;;5.40;2.10;;;22.50;44.20;;;;;;220639;1267;22511;-62
2022/04/19 08:58:36;;;;;;;4.00;2.00;;;22.50;44.80;;;;;;220519;1267;24228;-64
2022/04/19 09:03:41;;;;;;;4.40;1.80;;;22.50;44.60;;;;;;220358;1267;25464;-62
2022/04/19 09:09:10;;;;;;;3.80;2.00;;;22.50;45.20;;;;;;220947;1267;22692;-64
2022/04/19 09:14:15;;;;;;;2.70;1.80;;;22.50;44.80;;;;;;220559;1267;25159;-64
2022/04/19 09:19:28;;;;;;;6.90;2.40;;;22.50;44.70;;;;;;220536;1267;22682;-63
2022/04/19 09:24:38;;;;;;;6.80;2.40;;;22.40;44.60;;;;;;220948;1267;24395;-64
2022/04/19 09:29:45;;;;;;;4.80;2.30;;;22.40;44.50;;;;;;220476;1267;22637;-63
2022/04/19 09:34:49;;;;;;;3.40;2.10;;;22.40;44.50;;;;;;220484;1267;25467;-61
2022/04/19 09:39:53;;;;;;;6.40;2.00;;;22.40;44.50;;;;;;220427;1268;22547;-62
2022/04/19 09:45:04;;;;;;;3.90;2.00;;;22.30;44.30;;;;;;220459;1267;22923;-63
2022/04/19 09:50:12;;;;;;;4.10;2.20;;;22.30;44.40;;;;;;220587;1267;25361;-61
2022/04/19 09:55:22;;;;;;;4.60;2.40;;;22.40;44.50;;;;;;220427;1266;23070;-63
2022/04/19 10:00:27;;;;;;;6.60;2.30;;;22.40;44.70;;;;;;220337;1267;22551;-61
2022/04/19 10:10:57;;;;;;;3.70;2.20;;;23.10;43.00;;;;;;220873;1268;25508;-62
2022/04/19 10:16:01;;;;;;;3.70;2.00;;;23.30;43.00;;;;;;220595;1267;25655;-62
2022/04/19 10:21:10;;;;;;;6.90;2.50;;;23.50;42.80;;;;;;220721;1268;25350;-62
2022/04/19 10:26:24;;;;;;;9.10;2.50;;;23.60;42.60;;;;;;220383;1267;25353;-65
2022/04/19 10:31:35;;;;;;;4.90;2.50;;;23.70;42.00;;;;;;220554;1268;25579;-62
2022/04/19 10:36:40;;;;;;;6.00;2.60;;;23.80;42.10;;;;;;220775;1267;24758;-62
2022/04/19 10:41:55;;;;;;;8.60;2.50;;;23.80;41.70;;;;;;220652;1267;22766;-62
2022/04/19 10:47:12;;;;;;;4.50;2.10;;;23.70;41.70;;;;;;220816;1268;22622;-64
2022/04/19 10:52:37;;;;;;;4.50;2.10;;;23.70;41.90;;;;;;220513;1267;22558;-61
2022/04/19 11:03:08;;;;;;;4.80;2.10;;;23.60;42.60;;;;;;220544;1267;22689;-61
2022/04/19 11:08:24;;;;;;;4.50;2.00;;;23.50;42.40;;;;;;220588;1266;24125;-62
2022/04/19 11:13:36;;;;;;;5.30;2.10;;;23.50;42.80;;;;;;220522;1267;24257;-62
2022/04/19 11:18:51;;;;;;;5.00;2.20;;;23.50;42.00;;;;;;220798;1267;23122;-61
2022/04/19 11:24:12;;;;;;;4.80;2.00;;;23.40;42.20;;;;;;220925;1268;24414;-62
2022/04/19 11:29:18;;;;;;;3.80;1.70;;;23.40;42.50;;;;;;220464;1267;22682;-61
2022/04/19 11:34:22;;;;;;;3.70;2.20;;;23.50;42.40;;;;;;220743;1267;22774;-61
2022/04/19 11:50:27;;;;;;;4.90;2.30;;;23.50;42.10;;;;;;221049;1267;22684;-62
2022/04/19 11:55:31;;;;;;;6.90;2.10;;;23.50;42.10;;;;;;220481;1267;22657;-62
2022/04/19 12:00:36;;;;;;;4.80;1.80;;;23.40;42.50;;;;;;220724;1267;23893;-62
2022/04/19 12:05:40;;;;;;;5.00;2.20;;;23.40;42.60;;;;;;220518;1267;23071;-61
2022/04/19 12:10:44;;;;;;;4.80;2.10;;;23.40;42.30;;;;;;220834;1267;22628;-63
2022/04/19 12:15:48;;;;;;;3.70;2.10;;;23.30;42.30;;;;;;220864;1267;26465;-60
2022/04/19 12:20:51;;;;;;;3.80;2.00;;;23.30;42.70;;;;;;220943;1267;22681;-61
2022/04/19 12:26:01;;;;;;;5.40;1.90;;;23.30;42.20;;;;;;220933;1267;22599;-61
2022/04/19 12:31:06;;;;;;;3.70;2.00;;;23.30;42.50;;;;;;220555;1267;22538;-64
2022/04/19 12:36:13;;;;;;;4.30;2.40;;;23.30;42.50;;;;;;220296;1267;22552;-62
2022/04/19 12:41:18;;;;;;;3.50;2.40;;;23.30;42.60;;;;;;220743;1267;22714;-61
2022/04/19 12:46:22;;;;;;;4.50;2.50;;;23.30;42.50;;;;;;220854;1267;24353;-64
2022/04/19 12:51:27;;;;;;;5.90;2.10;;;23.30;42.50;;;;;;220591;1267;23910;-64
2022/04/19 13:02:57;;;;;;;4.40;2.10;;;23.30;42.50;;;;;;220271;1267;22641;-62
2022/04/19 13:13:27;;;;;;;4.50;2.30;;;23.30;42.60;;;;;;220444;1267;22569;-62
2022/04/19 13:18:31;;;;;;;5.20;2.50;;;23.30;42.30;;;;;;220528;1267;22591;-64
2022/04/19 13:23:35;;;;;;;4.60;2.60;;;23.20;43.10;;;;;;220322;1268;22521;-61
2022/04/19 13:28:38;;;;;;;4.20;2.40;;;23.20;42.40;;;;;;220740;1267;22678;-60
2022/04/19 13:33:42;;;;;;;4.80;2.30;;;23.10;42.40;;;;;;220689;1267;24258;-61
2022/04/19 13:38:46;;;;;;;3.70;2.60;;;23.20;42.70;;;;;;220646;1267;22540;-62
2022/04/19 13:43:51;;;;;;;4.40;2.20;;;23.20;42.40;;;;;;220498;1267;22687;-61
2022/04/19 13:48:54;;;;;;;3.10;1.90;;;23.20;42.40;;;;;;220535;1267;22559;-62
2022/04/19 13:54:01;;;;;;;4.20;2.20;;;23.20;42.40;;;;;;220658;1267;24063;-63
2022/04/19 13:59:06;;;;;;;3.40;2.30;;;23.20;42.50;;;;;;220547;1267;24038;-62
2022/04/19 14:04:10;;;;;;;6.10;2.50;;;23.20;42.50;;;;;;220503;1267;24237;-60
2022/04/19 14:09:15;;;;;;;5.30;2.50;;;23.10;42.20;;;;;;220440;1267;22549;-61
2022/04/19 14:14:19;;;;;;;5.40;2.40;;;23.10;42.10;;;;;;220523;1267;22567;-61
2022/04/19 14:19:23;;;;;;;4.20;2.30;;;23.10;42.00;;;;;;221001;1267;24889;-61
2022/04/19 14:24:30;;;;;;;4.70;2.50;;;23.10;42.20;;;;;;220817;1267;26117;-61
2022/04/19 14:35:12;;;;;;;3.60;2.40;;;23.10;41.90;;;;;;220713;1267;22569;-64
2022/04/19 14:40:19;;;;;;;4.00;2.60;;;23.00;41.90;;;;;;220620;1268;22716;-61
2022/04/19 14:45:25;;;;;;;3.90;2.70;;;23.00;42.00;;;;;;220435;1267;22583;-62
2022/04/19 14:52:13;;;;;;;5.70;2.70;;;23.00;42.00;;;;;;220819;1267;25505;-68
2022/04/19 14:56:19;;;;;;;4.20;2.40;;;23.00;41.80;;;;;;220342;1267;22806;-68
2022/04/19 15:01:37;;;;;;;6.40;2.60;;;22.90;42.10;;;;;;220285;1267;24302;-67
2022/04/19 15:06:47;;;;;;;3.80;2.70;;;22.90;42.30;;;;;;220773;1267;22557;-66
2022/04/19 15:12:19;;;;;;;6.30;2.80;;;22.90;42.50;;;;;;220222;1267;22729;-65
2022/04/19 15:17:26;;;;;;;7.20;3.30;;;22.90;43.80;;;;;;220384;1267;22557;-67
2022/04/19 15:22:39;;;;;;;5.30;3.00;;;22.90;44.20;;;;;;220299;1267;24332;-67
2022/04/19 15:27:48;;;;;;;6.80;2.60;;;22.80;44.20;;;;;;220284;1267;22532;-66
2022/04/19 15:32:57;;;;;;;6.00;3.00;;;22.80;44.30;;;;;;220385;1267;25225;-67
2022/04/19 15:38:09;;;;;;;8.50;3.00;;;22.90;44.00;;;;;;220452;1267;22616;-66
2022/04/19 15:43:25;;;;;;;18.10;4.50;;;22.90;44.80;;;;;;220298;1267;22928;-62
2022/04/19 15:48:33;;;;;;;16.60;4.10;;;22.90;48.60;;;;;;220046;1267;22567;-62
2022/04/19 15:53:43;;;;;;;10.10;3.70;;;22.90;47.70;;;;;;228018;1266;22574;-61
2022/04/19 15:58:48;;;;;;;17.50;4.50;;;22.90;47.50;;;;;;222847;1267;25363;-64
2022/04/19 16:03:53;;;;;;;13.20;4.20;;;22.90;48.10;;;;;;220766;1267;22609;-62
2022/04/19 16:09:03;;;;;;;16.10;4.30;;;22.90;48.10;;;;;;220731;1267;22731;-58
2022/04/19 16:14:16;;;;;;;11.70;4.10;;;22.90;47.70;;;;;;220858;1267;22790;-61
2022/04/19 16:25:01;;;;;;;13.90;4.70;;;23.00;47.70;;;;;;220037;1267;26625;-64
2022/04/19 16:30:07;;;;;;;11.90;5.20;;;22.90;49.10;;;;;;220159;1270;25424;-61
2022/04/19 16:35:13;;;;;;;11.70;3.90;;;22.80;49.40;;;;;;220334;1268;24290;-62
2022/04/19 16:40:20;;;;;;;13.20;4.60;;;22.80;48.30;;;;;;220080;1268;22535;-63
2022/04/19 16:45:34;;;;;;;9.70;4.60;;;22.80;47.70;;;;;;220060;1270;24234;-64
2022/04/19 16:50:39;;;;;;;12.40;4.50;;;22.70;47.10;;;;;;220407;1269;25413;-62
2022/04/19 16:55:43;;;;;;;7.80;3.80;;;22.70;47.60;;;;;;220237;1270;22534;-61
2022/04/19 17:00:49;;;;;;;16.80;4.70;;;22.70;46.90;;;;;;220452;1267;24409;-61
2022/04/19 17:05:53;;;;;;;18.20;4.90;;;22.70;46.90;;;;;;220960;1267;24372;-64
2022/04/19 17:10:57;;;;;;;10.90;4.10;;;22.80;47.50;;;;;;220825;1267;22792;-64
2022/04/19 17:16:00;;;;;;;16.30;5.20;;;22.80;46.30;;;;;;220817;1267;25305;-63
2022/04/19 17:21:08;;;;;;;17.60;4.90;;;22.60;46.10;;;;;;220825;1267;24303;-63
2022/04/19 17:26:18;;;;;;;11.90;4.30;;;22.60;45.90;;;;;;220805;1267;22578;-63
2022/04/19 17:31:22;;;;;;;14.80;5.30;;;22.60;46.00;;;;;;220965;1267;22788;-64
2022/04/19 17:36:26;;;;;;;15.20;4.60;;;22.50;46.10;;;;;;220799;1267;23521;-65
2022/04/19 17:41:35;;;;;;;14.60;5.30;;;22.50;45.90;;;;;;220665;1267;22528;-69
2022/04/19 17:46:39;;;;;;;16.30;4.70;;;22.50;45.60;;;;;;220490;1268;22559;-66
2022/04/19 17:57:08;;;;;;;12.60;4.60;;;22.40;45.10;;;;;;220358;1268;25268;-67
2022/04/19 18:02:14;;;;;;;12.60;4.70;;;22.40;45.30;;;;;;221121;1268;24280;-62
2022/04/19 18:07:18;;;;;;;20.70;4.90;;;22.40;45.10;;;;;;220725;1267;24208;-64
2022/04/19 18:12:26;;;;;;;21.40;5.10;;;22.40;45.90;;;;;;220827;1267;24348;-64
2022/04/19 18:17:30;;;;;;;14.00;4.30;;;22.40;46.40;;;;;;220613;1267;24461;-65
2022/04/19 18:28:04;;;;;;;12.10;4.60;;;22.40;47.30;;;;;;220480;1267;22522;-64
2022/04/19 18:33:11;;;;;;;13.70;5.10;;;22.40;47.10;;;;;;220603;1268;22616;-64
2022/04/19 18:38:18;;;;;;;7.80;4.90;;;22.40;47.10;;;;;;220671;1267;23167;-64
2022/04/19 18:43:21;;;;;;;20.50;5.40;;;22.40;47.00;;;;;;220839;1268;24282;-61
2022/04/19 18:48:28;;;;;;;12.00;5.60;;;22.40;47.00;;;;;;220390;1267;24422;-66
2022/04/19 18:53:36;;;;;;;27.50;5.70;;;22.40;47.00;;;;;;220744;1267;25356;-63
2022/04/19 18:58:47;;;;;;;16.90;4.70;;;22.40;47.10;;;;;;220732;1267;22673;-61
2022/04/19 19:03:56;;;;;;;22.10;5.30;;;22.40;48.00;;;;;;221054;1268;22575;-63
2022/04/19 19:09:01;;;;;;;21.60;4.50;;;22.40;48.70;;;;;;220717;1267;22561;-62
2022/04/19 19:14:04;;;;;;;12.90;4.80;;;22.40;48.60;;;;;;221168;1267;24260;-62
2022/04/19 19:19:09;;;;;;;17.70;5.10;;;22.40;48.40;;;;;;220855;1267;25216;-63
2022/04/19 19:24:13;;;;;;;15.80;5.00;;;22.30;48.40;;;;;;220997;1267;22684;-64
2022/04/19 19:29:18;;;;;;;13.20;5.50;;;22.20;48.30;;;;;;220473;1267;22597;-63
2022/04/19 19:34:31;;;;;;;12.90;4.80;;;22.30;48.10;;;;;;220526;1267;22847;-62
2022/04/19 19:39:45;;;;;;;10.40;4.80;;;22.50;47.90;;;;;;220335;1267;23543;-64
2022/04/19 19:44:49;;;;;;;16.00;5.20;;;22.80;47.50;;;;;;220834;1268;23192;-64
2022/04/19 19:49:59;;;;;;;16.30;5.10;;;23.00;46.60;;;;;;220422;1267;22659;-65
2022/04/19 19:55:07;;;;;;;15.30;4.90;;;23.20;45.80;;;;;;220421;1267;24449;-65
2022/04/19 20:00:12;;;;;;;12.70;4.80;;;23.30;46.00;;;;;;220439;1267;22732;-67
2022/04/19 20:05:16;;;;;;;11.10;4.50;;;23.40;45.80;;;;;;220633;1267;22547;-64
2022/04/19 20:10:20;;;;;;;17.00;4.60;;;23.50;45.50;;;;;;220336;1267;22554;-64
2022/04/19 20:15:27;;;;;;;12.10;4.70;;;23.50;45.40;;;;;;220432;1267;24271;-66
2022/04/19 20:20:37;;;;;;;11.00;4.50;;;23.60;45.30;;;;;;220696;1267;24306;-64
2022/04/19 20:25:48;;;;;;;10.90;4.90;;;23.80;45.10;;;;;;220389;1266;22567;-65
2022/04/19 20:30:54;;;;;;;10.20;4.60;;;23.70;44.90;;;;;;220627;1267;23127;-63
2022/04/19 20:35:58;;;;;;;10.00;4.20;;;23.80;44.80;;;;;;220435;1267;24208;-63
2022/04/19 20:41:02;;;;;;;9.80;4.30;;;23.80;44.70;;;;;;220584;1268;22535;-64
2022/04/19 20:46:07;;;;;;;9.30;4.50;;;23.80;45.00;;;;;;220832;1267;22535;-65
2022/04/19 20:51:13;;;;;;;10.10;5.20;;;23.70;45.10;;;;;;220747;1267;22842;-63
2022/04/19 20:56:17;;;;;;;11.90;4.40;;;23.60;45.10;;;;;;220313;1267;23237;-64
2022/04/19 21:01:21;;;;;;;9.50;4.10;;;23.60;45.40;;;;;;220352;1268;25382;-62
2022/04/19 21:06:27;;;;;;;8.80;4.10;;;23.60;45.90;;;;;;220600;1267;25309;-61
2022/04/19 21:11:34;;;;;;;7.90;4.10;;;23.60;46.10;;;;;;220624;1268;24221;-60
2022/04/19 21:16:47;;;;;;;8.70;4.40;;;23.60;46.00;;;;;;220432;1267;22531;-61
2022/04/19 21:21:54;;;;;;;10.20;4.60;;;23.60;45.70;;;;;;220541;1269;25569;-62
2022/04/19 21:26:58;;;;;;;9.00;4.00;;;23.50;45.60;;;;;;220194;1267;22611;-62
2022/04/19 21:32:07;;;;;;;6.70;4.30;;;23.50;45.70;;;;;;220468;1267;22781;-62
2022/04/19 21:37:25;;;;;;;6.90;3.70;;;23.50;45.90;;;;;;220479;1267;22794;-63
2022/04/19 21:42:30;;;;;;;9.80;4.20;;;23.60;45.80;;;;;;220825;1266;24280;-61
2022/04/19 21:47:35;;;;;;;7.00;4.40;;;23.70;45.00;;;;;;220436;1267;24369;-63
2022/04/19 21:52:45;;;;;;;8.30;4.60;;;23.90;44.80;;;;;;220876;1267;22613;-62
2022/04/19 21:57:54;;;;;;;7.20;3.60;;;23.90;44.50;;;;;;220233;1267;24315;-62
2022/04/19 22:03:03;;;;;;;11.50;4.20;;;23.90;44.60;;;;;;220363;1268;25562;-61
2022/04/19 22:08:07;;;;;;;10.30;4.40;;;23.70;45.70;;;;;;220348;1267;22519;-59
2022/04/19 22:13:11;;;;;;;11.20;4.40;;;23.60;46.10;;;;;;220834;1267;24189;-61
2022/04/19 22:18:15;;;;;;;8.60;4.20;;;23.60;46.30;;;;;;220711;1267;22772;-61
2022/04/19 22:23:24;;;;;;;11.20;4.10;;;23.50;46.50;;;;;;220947;1270;22648;-60
2022/04/19 22:28:29;;;;;;;10.50;4.50;;;23.40;46.50;;;;;;220835;1268;25600;-60
2022/04/19 22:33:33;;;;;;;8.00;4.30;;;23.30;46.40;;;;;;220693;1268;25339;-62
2022/04/19 22:38:38;;;;;;;8.90;4.30;;;23.20;46.10;;;;;;220514;1269;24239;-63
2022/04/19 22:43:42;;;;;;;10.90;4.70;;;23.20;46.50;;;;;;220420;1268;25287;-64
2022/04/19 22:48:48;;;;;;;13.20;3.80;;;23.10;46.60;;;;;;220556;1267;22558;-64
2022/04/19 22:53:54;;;;;;;10.10;4.10;;;23.00;46.80;;;;;;220417;1270;22543;-63
2022/04/19 22:59:00;;;;;;;9.30;4.30;;;22.90;46.80;;;;;;220147;1267;22633;-63
2022/04/19 23:04:04;;;;;;;10.10;4.60;;;22.90;47.60;;;;;;220199;1271;23727;-62
2022/04/19 23:09:08;;;;;;;8.40;4.30;;;22.90;47.60;;;;;;219865;1267;25673;-63
2022/04/19 23:14:13;;;;;;;8.10;4.50;;;22.80;47.50;;;;;;219894;1270;25350;-63
2022/04/19 23:19:23;;;;;;;7.60;4.20;;;22.80;47.60;;;;;;220071;1267;24002;-65
2022/04/19 23:24:30;;;;;;;12.50;4.80;;;22.80;47.90;;;;;;220816;1270;24256;-63
2022/04/19 23:29:41;;;;;;;7.80;4.60;;;22.70;47.90;;;;;;220545;1269;24419;-64
2022/04/19 23:34:45;;;;;;;6.90;4.20;;;22.70;47.60;;;;;;220506;1268;22535;-64
2022/04/19 23:39:48;;;;;;;8.90;4.90;;;22.60;47.50;;;;;;220325;1270;22626;-63
2022/04/19 23:44:53;;;;;;;9.10;5.30;;;22.50;47.80;;;;;;220382;1268;22838;-64
2022/04/19 23:49:57;;;;;;;8.20;4.20;;;22.50;47.50;;;;;;220306;1271;24267;-64
2022/04/19 23:55:01;;;;;;;9.20;4.50;;;22.50;47.40;;;;;;220378;1268;22634;-63
